Overseas Skopelos — V7SU9 — position and weather

sailwx.info

Track history (hours):
 
Tides and Currents Weather Stations Pressure Air Temp Water Temp Dewpoint Dewpoint Depression Visibility Wind Speed Wind Dir Waves Ship Positions

Overseas Skopelos

Last reported at 2014-Oct-11 06:13 UTC. Time now 2014-Oct-22 15:23 UTC.
Position N 33°02' W 127°17'.
Warning: this ship's position is 11 days out of date.

Length 183 m; draft 8.6 m.

Type: Tanker. MMSI: 538003726.

Date/timePositionNaut miles runAvg speedWind from/ knotsBaromVisibWave heightAir tempDewpointWater temp
2014-Oct-11 06:13N 33°02' W 127°17'913.0
2014-Oct-11 05:33N 32°58' W 127°08'1313.0
2014-Oct-11 04:32N 32°52' W 126°54'2612.9
2014-Oct-11 02:31N 32°39' W 126°27'1612.9
2014-Oct-11 01:19N 32°32' W 126°11'1213.0
2014-Oct-11 00:24N 32°26' W 125°59'3013.0
2014-Oct-10 22:06N 32°12' W 125°28'2113.0
2014-Oct-10 20:30N 32°02' W 125°06'1213.0
2014-Oct-10 19:33N 31°56' W 124°53'1312.8
2014-Oct-10 18:33N 31°50' W 124°40'1413.0
2014-Oct-10 17:27N 31°43' W 124°25'2512.9
2014-Oct-10 15:28N 31°31' W 123°59'1212.7
2014-Oct-10 14:33N 31°25' W 123°47'1413.0
2014-Oct-10 13:29N 31°18' W 123°33'1413.1
2014-Oct-10 12:26N 31°12' W 123°19'1113.0
2014-Oct-10 11:33N 31°06' W 123°07'1313.0
2014-Oct-10 10:33N 31°00' W 122°53'1313.2
2014-Oct-10 09:33N 30°56' W 122°39'1313.1
2014-Oct-10 08:33N 30°51' W 122°25'1313.0
2014-Oct-10 07:33N 30°45' W 122°12'1312.9
2014-Oct-10 06:33N 30°38' W 121°58'1313.0
2014-Oct-10 05:33N 30°32' W 121°45'1312.5
2014-Oct-10 04:33N 30°31' W 121°31'1513.3
2014-Oct-10 03:25N 30°34' W 121°13'1313.0
2014-Oct-10 02:27N 30°36' W 120°59'1212.8
2014-Oct-10 01:32N 30°39' W 120°46'1312.7
2014-Oct-10 00:33N 30°41' W 120°31'2512.7
2014-Oct-09 22:33N 30°46' W 120°02'4212.6
2014-Oct-09 19:14N 30°53' W 119°14'4411.8
2014-Oct-09 15:30N 31°09' W 118°26'1212.8
2014-Oct-09 14:33N 31°20' W 118°21'1313.0
2014-Oct-09 13:32N 31°32' W 118°15'1313.2
2014-Oct-09 12:33N 31°44' W 118°09'1313.0
2014-Oct-09 11:33N 31°56' W 118°03'1413.2
2014-Oct-09 10:32N 32°09' W 117°57'1313.0
2014-Oct-09 09:33N 32°20' W 117°52'1313.0
2014-Oct-09 08:33N 32°33' W 117°49'1312.5
2014-Oct-09 07:33N 32°45' W 117°52'1312.8
2014-Oct-09 06:33N 32°57' W 117°57'1312.7
2014-Oct-09 05:33N 33°09' W 118°02'1110.9
2014-Oct-09 04:33N 33°20' W 118°07'1110.6
2014-Oct-09 03:33N 33°30' W 118°11'1010.3
2014-Oct-09 02:33N 33°40' W 118°12'4 4.3
2014-Oct-09 01:32N 33°44' W 118°10'0 0.0
2014-Oct-09 00:32N 33°44' W 118°10'0 0.0
2014-Oct-08 23:32N 33°44' W 118°10'0 0.0
2014-Oct-08 22:32N 33°44' W 118°10'0 0.0
2014-Oct-08 21:32N 33°44' W 118°10'0 0.0
2014-Oct-08 20:32N 33°44' W 118°10'0 0.0
2014-Oct-08 19:32N 33°44' W 118°10'0 0.0
2014-Oct-08 18:32N 33°44' W 118°10'0 0.2
2014-Oct-08 17:32N 33°44' W 118°10'0 0.0
2014-Oct-08 16:32N 33°44' W 118°10'0 0.1
2014-Oct-08 15:32N 33°44' W 118°10'0 0.1
2014-Oct-08 14:32N 33°44' W 118°10'0 0.0
2014-Oct-08 13:32N 33°44' W 118°10'0 0.0
2014-Oct-08 12:32N 33°44' W 118°10'0 0.0
2014-Oct-08 11:32N 33°44' W 118°10'0 0.0
2014-Oct-08 10:32N 33°44' W 118°10'0 0.0
2014-Oct-08 09:32N 33°44' W 118°10'0 0.0
2014-Oct-08 08:32N 33°44' W 118°10'0 0.1
2014-Oct-08 07:32N 33°44' W 118°10'0 0.0
2014-Oct-08 06:32N 33°44' W 118°10'0 0.1
2014-Oct-08 05:32N 33°44' W 118°10'0 0.0
2014-Oct-08 04:32N 33°44' W 118°10'0 0.0
2014-Oct-08 03:32N 33°44' W 118°10'0 0.1
2014-Oct-08 02:32N 33°44' W 118°10'6 5.9
2014-Oct-08 01:33N 33°38' W 118°11'1010.4
2014-Oct-08 00:34N 33°29' W 118°06'1110.8
2014-Oct-07 23:33N 33°18' W 118°02'1211.9
2014-Oct-07 22:33N 33°07' W 117°58'1312.6
2014-Oct-07 21:33N 32°55' W 117°55'7 6.8
2014-Oct-07 20:33N 32°48' W 117°53'9 8.9
2014-Oct-07 19:33N 32°40' W 117°49'10 9.8
2014-Oct-07 18:33N 32°30' W 117°47'10 9.6
2014-Oct-07 17:33N 32°20' W 117°48'1111.3
2014-Oct-07 16:33N 32°09' W 117°47'1111.2
2014-Oct-07 15:33N 31°58' W 117°46'1612.9
2014-Oct-07 14:18N 31°43' W 117°39'1012.8
2014-Oct-07 13:33N 31°34' W 117°34'1312.5
2014-Oct-07 12:33N 31°23' W 117°28'1412.9
2014-Oct-07 11:26N 31°10' W 117°22'  
Track history (hours):
 
Tides and Currents Weather Stations Pressure Air Temp Water Temp Dewpoint Dewpoint Depression Visibility Wind Speed Wind Dir Waves Ship Positions

Overseas Skopelos

Last reported at 2014-Oct-11 06:13 UTC. Time now 2014-Oct-22 15:23 UTC.
Position N 33°02' W 127°17'.
Warning: this ship's position is 11 days out of date.

Length 183 m; draft 8.6 m.

Type: Tanker. MMSI: 538003726.

Date/timePositionNaut miles runAvg speedWind from/ knotsBaromVisibWave heightAir tempDewpointWater temp
2014-Oct-11 06:13N 33°02' W 127°17'913.0
2014-Oct-11 05:33N 32°58' W 127°08'1313.0
2014-Oct-11 04:32N 32°52' W 126°54'2612.9
2014-Oct-11 02:31N 32°39' W 126°27'1612.9
2014-Oct-11 01:19N 32°32' W 126°11'1213.0
2014-Oct-11 00:24N 32°26' W 125°59'3013.0
2014-Oct-10 22:06N 32°12' W 125°28'2113.0
2014-Oct-10 20:30N 32°02' W 125°06'1213.0
2014-Oct-10 19:33N 31°56' W 124°53'1312.8
2014-Oct-10 18:33N 31°50' W 124°40'1413.0
2014-Oct-10 17:27N 31°43' W 124°25'2512.9
2014-Oct-10 15:28N 31°31' W 123°59'1212.7
2014-Oct-10 14:33N 31°25' W 123°47'1413.0
2014-Oct-10 13:29N 31°18' W 123°33'1413.1
2014-Oct-10 12:26N 31°12' W 123°19'1113.0
2014-Oct-10 11:33N 31°06' W 123°07'1313.0
2014-Oct-10 10:33N 31°00' W 122°53'1313.2
2014-Oct-10 09:33N 30°56' W 122°39'1313.1
2014-Oct-10 08:33N 30°51' W 122°25'1313.0
2014-Oct-10 07:33N 30°45' W 122°12'1312.9
2014-Oct-10 06:33N 30°38' W 121°58'1313.0
2014-Oct-10 05:33N 30°32' W 121°45'1312.5
2014-Oct-10 04:33N 30°31' W 121°31'1513.3
2014-Oct-10 03:25N 30°34' W 121°13'1313.0
2014-Oct-10 02:27N 30°36' W 120°59'1212.8
2014-Oct-10 01:32N 30°39' W 120°46'1312.7
2014-Oct-10 00:33N 30°41' W 120°31'2512.7
2014-Oct-09 22:33N 30°46' W 120°02'4212.6
2014-Oct-09 19:14N 30°53' W 119°14'4411.8
2014-Oct-09 15:30N 31°09' W 118°26'1212.8
2014-Oct-09 14:33N 31°20' W 118°21'1313.0
2014-Oct-09 13:32N 31°32' W 118°15'1313.2
2014-Oct-09 12:33N 31°44' W 118°09'1313.0
2014-Oct-09 11:33N 31°56' W 118°03'1413.2
2014-Oct-09 10:32N 32°09' W 117°57'1313.0
2014-Oct-09 09:33N 32°20' W 117°52'1313.0
2014-Oct-09 08:33N 32°33' W 117°49'1312.5
2014-Oct-09 07:33N 32°45' W 117°52'1312.8
2014-Oct-09 06:33N 32°57' W 117°57'1312.7
2014-Oct-09 05:33N 33°09' W 118°02'1110.9
2014-Oct-09 04:33N 33°20' W 118°07'1110.6
2014-Oct-09 03:33N 33°30' W 118°11'1010.3
2014-Oct-09 02:33N 33°40' W 118°12'4 4.3
2014-Oct-09 01:32N 33°44' W 118°10'0 0.0
2014-Oct-09 00:32N 33°44' W 118°10'0 0.0
2014-Oct-08 23:32N 33°44' W 118°10'0 0.0
2014-Oct-08 22:32N 33°44' W 118°10'0 0.0
2014-Oct-08 21:32N 33°44' W 118°10'0 0.0
2014-Oct-08 20:32N 33°44' W 118°10'0 0.0
2014-Oct-08 19:32N 33°44' W 118°10'0 0.0
2014-Oct-08 18:32N 33°44' W 118°10'0 0.2
2014-Oct-08 17:32N 33°44' W 118°10'0 0.0
2014-Oct-08 16:32N 33°44' W 118°10'0 0.1
2014-Oct-08 15:32N 33°44' W 118°10'0 0.1
2014-Oct-08 14:32N 33°44' W 118°10'0 0.0
2014-Oct-08 13:32N 33°44' W 118°10'0 0.0
2014-Oct-08 12:32N 33°44' W 118°10'0 0.0
2014-Oct-08 11:32N 33°44' W 118°10'0 0.0
2014-Oct-08 10:32N 33°44' W 118°10'0 0.0
2014-Oct-08 09:32N 33°44' W 118°10'0 0.0
2014-Oct-08 08:32N 33°44' W 118°10'0 0.1
2014-Oct-08 07:32N 33°44' W 118°10'0 0.0
2014-Oct-08 06:32N 33°44' W 118°10'0 0.1
2014-Oct-08 05:32N 33°44' W 118°10'0 0.0
2014-Oct-08 04:32N 33°44' W 118°10'0 0.0
2014-Oct-08 03:32N 33°44' W 118°10'0 0.1
2014-Oct-08 02:32N 33°44' W 118°10'6 5.9
2014-Oct-08 01:33N 33°38' W 118°11'1010.4
2014-Oct-08 00:34N 33°29' W 118°06'1110.8
2014-Oct-07 23:33N 33°18' W 118°02'1211.9
2014-Oct-07 22:33N 33°07' W 117°58'1312.6
2014-Oct-07 21:33N 32°55' W 117°55'7 6.8
2014-Oct-07 20:33N 32°48' W 117°53'9 8.9
2014-Oct-07 19:33N 32°40' W 117°49'10 9.8
2014-Oct-07 18:33N 32°30' W 117°47'10 9.6
2014-Oct-07 17:33N 32°20' W 117°48'1111.3
2014-Oct-07 16:33N 32°09' W 117°47'1111.2
2014-Oct-07 15:33N 31°58' W 117°46'1612.9
2014-Oct-07 14:18N 31°43' W 117°39'1012.8
2014-Oct-07 13:33N 31°34' W 117°34'1312.5
2014-Oct-07 12:33N 31°23' W 117°28'1412.9
2014-Oct-07 11:26N 31°10' W 117°22'  

Dump ship's entire track history